sensor_id;sensor_type;location;lat;lon;timestamp;P1;durP1;ratioP1;P2;durP2;ratioP2
17725;SDS011;8983;53.156;17.960;2023-06-22T00:00:37;8.57;;;7.57;;
17725;SDS011;8983;53.156;17.960;2023-06-22T00:03:09;10.52;;;8.73;;
17725;SDS011;8983;53.156;17.960;2023-06-22T00:05:37;11.05;;;8.90;;
17725;SDS011;8983;53.156;17.960;2023-06-22T00:08:05;9.18;;;7.93;;
17725;SDS011;8983;53.156;17.960;2023-06-22T00:10:33;10.00;;;8.50;;
17725;SDS011;8983;53.156;17.960;2023-06-22T00:13:01;9.65;;;7.85;;
17725;SDS011;8983;53.156;17.960;2023-06-22T00:15:31;9.07;;;8.07;;
17725;SDS011;8983;53.156;17.960;2023-06-22T00:17:59;9.93;;;8.45;;
17725;SDS011;8983;53.156;17.960;2023-06-22T00:20:29;11.93;;;8.48;;
17725;SDS011;8983;53.156;17.960;2023-06-22T00:22:58;9.80;;;8.60;;
17725;SDS011;8983;53.156;17.960;2023-06-22T00:25:26;8.32;;;7.53;;
17725;SDS011;8983;53.156;17.960;2023-06-22T00:27:54;10.15;;;8.32;;
17725;SDS011;8983;53.156;17.960;2023-06-22T00:30:22;10.23;;;8.27;;
17725;SDS011;8983;53.156;17.960;2023-06-22T00:32:52;10.13;;;8.50;;
17725;SDS011;8983;53.156;17.960;2023-06-22T00:35:20;9.48;;;8.55;;
17725;SDS011;8983;53.156;17.960;2023-06-22T00:37:48;10.68;;;8.05;;
17725;SDS011;8983;53.156;17.960;2023-06-22T00:40:18;9.68;;;8.45;;
17725;SDS011;8983;53.156;17.960;2023-06-22T00:42:48;11.93;;;9.82;;
17725;SDS011;8983;53.156;17.960;2023-06-22T00:45:16;11.35;;;8.88;;
17725;SDS011;8983;53.156;17.960;2023-06-22T00:47:44;10.80;;;9.63;;
17725;SDS011;8983;53.156;17.960;2023-06-22T00:50:15;10.57;;;9.13;;
17725;SDS011;8983;53.156;17.960;2023-06-22T00:52:48;10.10;;;8.57;;
17725;SDS011;8983;53.156;17.960;2023-06-22T00:55:18;11.90;;;10.05;;
17725;SDS011;8983;53.156;17.960;2023-06-22T00:57:48;12.60;;;9.75;;
17725;SDS011;8983;53.156;17.960;2023-06-22T01:00:16;11.65;;;10.27;;
17725;SDS011;8983;53.156;17.960;2023-06-22T01:02:46;13.73;;;10.38;;
17725;SDS011;8983;53.156;17.960;2023-06-22T01:05:19;11.85;;;10.05;;
17725;SDS011;8983;53.156;17.960;2023-06-22T01:07:52;12.05;;;10.30;;
17725;SDS011;8983;53.156;17.960;2023-06-22T01:10:41;12.75;;;9.88;;
17725;SDS011;8983;53.156;17.960;2023-06-22T01:13:16;11.50;;;9.88;;
17725;SDS011;8983;53.156;17.960;2023-06-22T01:15:53;9.00;;;7.95;;
17725;SDS011;8983;53.156;17.960;2023-06-22T01:18:28;8.40;;;7.60;;
17725;SDS011;8983;53.156;17.960;2023-06-22T01:20:59;11.52;;;7.60;;
17725;SDS011;8983;53.156;17.960;2023-06-22T01:23:31;13.65;;;7.57;;
17725;SDS011;8983;53.156;17.960;2023-06-22T01:26:12;9.02;;;7.68;;
17725;SDS011;8983;53.156;17.960;2023-06-22T01:28:47;10.50;;;7.45;;
17725;SDS011;8983;53.156;17.960;2023-06-22T01:31:18;8.98;;;6.88;;
17725;SDS011;8983;53.156;17.960;2023-06-22T01:33:50;8.10;;;6.93;;
17725;SDS011;8983;53.156;17.960;2023-06-22T01:36:21;10.20;;;6.82;;
17725;SDS011;8983;53.156;17.960;2023-06-22T01:38:51;8.50;;;7.20;;
17725;SDS011;8983;53.156;17.960;2023-06-22T01:41:20;7.38;;;6.53;;
17725;SDS011;8983;53.156;17.960;2023-06-22T01:43:53;7.03;;;6.25;;
17725;SDS011;8983;53.156;17.960;2023-06-22T01:46:23;6.88;;;6.07;;
17725;SDS011;8983;53.156;17.960;2023-06-22T01:48:52;7.07;;;6.38;;
17725;SDS011;8983;53.156;17.960;2023-06-22T01:51:20;7.22;;;6.47;;
17725;SDS011;8983;53.156;17.960;2023-06-22T01:53:49;8.02;;;6.60;;
17725;SDS011;8983;53.156;17.960;2023-06-22T01:56:17;7.68;;;6.72;;
17725;SDS011;8983;53.156;17.960;2023-06-22T01:58:48;9.48;;;6.40;;
17725;SDS011;8983;53.156;17.960;2023-06-22T02:01:24;8.27;;;6.15;;
17725;SDS011;8983;53.156;17.960;2023-06-22T02:03:57;8.15;;;5.93;;
17725;SDS011;8983;53.156;17.960;2023-06-22T02:06:33;7.43;;;6.47;;
17725;SDS011;8983;53.156;17.960;2023-06-22T02:09:06;7.13;;;6.20;;
17725;SDS011;8983;53.156;17.960;2023-06-22T02:11:37;8.00;;;5.97;;
17725;SDS011;8983;53.156;17.960;2023-06-22T02:14:08;7.80;;;5.47;;
17725;SDS011;8983;53.156;17.960;2023-06-22T02:16:38;7.37;;;6.30;;
17725;SDS011;8983;53.156;17.960;2023-06-22T02:19:09;8.20;;;6.30;;
17725;SDS011;8983;53.156;17.960;2023-06-22T02:21:37;7.93;;;6.60;;
17725;SDS011;8983;53.156;17.960;2023-06-22T02:24:05;9.30;;;6.05;;
17725;SDS011;8983;53.156;17.960;2023-06-22T02:26:33;8.35;;;6.70;;
17725;SDS011;8983;53.156;17.960;2023-06-22T02:29:01;8.40;;;6.00;;
17725;SDS011;8983;53.156;17.960;2023-06-22T02:31:29;8.30;;;6.23;;
17725;SDS011;8983;53.156;17.960;2023-06-22T02:33:59;12.03;;;6.97;;
17725;SDS011;8983;53.156;17.960;2023-06-22T02:36:27;7.00;;;6.00;;
17725;SDS011;8983;53.156;17.960;2023-06-22T02:38:57;7.70;;;6.60;;
17725;SDS011;8983;53.156;17.960;2023-06-22T02:41:27;7.28;;;5.90;;
17725;SDS011;8983;53.156;17.960;2023-06-22T02:43:55;6.47;;;5.67;;
17725;SDS011;8983;53.156;17.960;2023-06-22T02:46:23;8.43;;;6.10;;
17725;SDS011;8983;53.156;17.960;2023-06-22T02:48:51;7.93;;;5.10;;
17725;SDS011;8983;53.156;17.960;2023-06-22T02:51:21;8.70;;;5.10;;
17725;SDS011;8983;53.156;17.960;2023-06-22T02:53:49;6.68;;;4.88;;
17725;SDS011;8983;53.156;17.960;2023-06-22T02:56:24;7.00;;;5.03;;
17725;SDS011;8983;53.156;17.960;2023-06-22T02:58:52;5.97;;;5.13;;
17725;SDS011;8983;53.156;17.960;2023-06-22T03:01:20;8.60;;;4.73;;
17725;SDS011;8983;53.156;17.960;2023-06-22T03:03:50;5.43;;;4.50;;
17725;SDS011;8983;53.156;17.960;2023-06-22T03:06:20;6.17;;;4.57;;
17725;SDS011;8983;53.156;17.960;2023-06-22T03:08:50;6.47;;;4.37;;
17725;SDS011;8983;53.156;17.960;2023-06-22T03:11:18;6.20;;;4.37;;
17725;SDS011;8983;53.156;17.960;2023-06-22T03:13:46;6.20;;;4.37;;
17725;SDS011;8983;53.156;17.960;2023-06-22T03:16:14;5.68;;;4.38;;
17725;SDS011;8983;53.156;17.960;2023-06-22T03:18:42;9.03;;;4.90;;
17725;SDS011;8983;53.156;17.960;2023-06-22T03:21:10;6.18;;;5.03;;
17725;SDS011;8983;53.156;17.960;2023-06-22T03:23:40;6.83;;;5.27;;
17725;SDS011;8983;53.156;17.960;2023-06-22T03:26:08;6.27;;;4.73;;
17725;SDS011;8983;53.156;17.960;2023-06-22T03:28:37;6.40;;;5.27;;
17725;SDS011;8983;53.156;17.960;2023-06-22T03:31:05;8.80;;;5.40;;
17725;SDS011;8983;53.156;17.960;2023-06-22T03:33:34;5.73;;;5.13;;
17725;SDS011;8983;53.156;17.960;2023-06-22T03:36:02;7.90;;;5.17;;
17725;SDS011;8983;53.156;17.960;2023-06-22T03:38:30;9.77;;;4.90;;
17725;SDS011;8983;53.156;17.960;2023-06-22T03:41:00;5.40;;;4.90;;
17725;SDS011;8983;53.156;17.960;2023-06-22T03:43:28;5.93;;;5.17;;
17725;SDS011;8983;53.156;17.960;2023-06-22T03:45:56;6.57;;;4.70;;
17725;SDS011;8983;53.156;17.960;2023-06-22T03:48:24;8.20;;;5.07;;
17725;SDS011;8983;53.156;17.960;2023-06-22T03:50:52;4.90;;;4.45;;
17725;SDS011;8983;53.156;17.960;2023-06-22T03:53:20;6.53;;;4.90;;
17725;SDS011;8983;53.156;17.960;2023-06-22T03:55:48;7.90;;;4.80;;
17725;SDS011;8983;53.156;17.960;2023-06-22T03:58:19;5.47;;;4.50;;
17725;SDS011;8983;53.156;17.960;2023-06-22T04:00:48;7.57;;;4.50;;
17725;SDS011;8983;53.156;17.960;2023-06-22T04:03:17;4.57;;;4.13;;
17725;SDS011;8983;53.156;17.960;2023-06-22T04:05:46;4.57;;;4.00;;
17725;SDS011;8983;53.156;17.960;2023-06-22T04:08:15;6.80;;;4.30;;
17725;SDS011;8983;53.156;17.960;2023-06-22T04:10:44;6.33;;;4.10;;
17725;SDS011;8983;53.156;17.960;2023-06-22T04:13:12;5.25;;;4.03;;
17725;SDS011;8983;53.156;17.960;2023-06-22T04:15:41;7.70;;;4.30;;
17725;SDS011;8983;53.156;17.960;2023-06-22T04:18:09;7.07;;;4.70;;
17725;SDS011;8983;53.156;17.960;2023-06-22T04:20:38;5.57;;;4.13;;
17725;SDS011;8983;53.156;17.960;2023-06-22T04:23:06;6.60;;;4.23;;
17725;SDS011;8983;53.156;17.960;2023-06-22T04:25:34;4.55;;;4.05;;
17725;SDS011;8983;53.156;17.960;2023-06-22T04:28:02;5.25;;;4.00;;
17725;SDS011;8983;53.156;17.960;2023-06-22T04:30:32;8.27;;;4.00;;
17725;SDS011;8983;53.156;17.960;2023-06-22T04:33:02;6.28;;;4.25;;
17725;SDS011;8983;53.156;17.960;2023-06-22T04:35:30;4.90;;;4.20;;
17725;SDS011;8983;53.156;17.960;2023-06-22T04:37:58;5.78;;;4.05;;
17725;SDS011;8983;53.156;17.960;2023-06-22T04:40:26;5.53;;;3.77;;
17725;SDS011;8983;53.156;17.960;2023-06-22T04:42:55;5.28;;;4.43;;
17725;SDS011;8983;53.156;17.960;2023-06-22T04:45:23;6.60;;;3.90;;
17725;SDS011;8983;53.156;17.960;2023-06-22T04:47:51;6.53;;;4.50;;
17725;SDS011;8983;53.156;17.960;2023-06-22T04:50:21;6.03;;;4.20;;
17725;SDS011;8983;53.156;17.960;2023-06-22T04:52:50;6.45;;;4.10;;
17725;SDS011;8983;53.156;17.960;2023-06-22T04:55:19;5.28;;;3.92;;
17725;SDS011;8983;53.156;17.960;2023-06-22T04:57:48;9.57;;;4.20;;
17725;SDS011;8983;53.156;17.960;2023-06-22T05:00:16;6.85;;;4.43;;
17725;SDS011;8983;53.156;17.960;2023-06-22T05:02:46;5.72;;;4.03;;
17725;SDS011;8983;53.156;17.960;2023-06-22T05:05:14;6.22;;;4.60;;
17725;SDS011;8983;53.156;17.960;2023-06-22T05:07:45;6.07;;;4.60;;
17725;SDS011;8983;53.156;17.960;2023-06-22T05:10:14;5.93;;;3.97;;
17725;SDS011;8983;53.156;17.960;2023-06-22T05:12:43;5.43;;;4.47;;
17725;SDS011;8983;53.156;17.960;2023-06-22T05:15:11;4.50;;;4.05;;
17725;SDS011;8983;53.156;17.960;2023-06-22T05:17:39;7.10;;;4.10;;
17725;SDS011;8983;53.156;17.960;2023-06-22T05:20:09;6.23;;;4.43;;
17725;SDS011;8983;53.156;17.960;2023-06-22T05:22:38;6.57;;;4.17;;
17725;SDS011;8983;53.156;17.960;2023-06-22T05:25:11;6.00;;;4.13;;
17725;SDS011;8983;53.156;17.960;2023-06-22T05:27:40;5.83;;;4.50;;
17725;SDS011;8983;53.156;17.960;2023-06-22T05:30:10;6.10;;;4.10;;
17725;SDS011;8983;53.156;17.960;2023-06-22T05:32:38;5.90;;;4.13;;
17725;SDS011;8983;53.156;17.960;2023-06-22T05:35:07;6.73;;;4.13;;
17725;SDS011;8983;53.156;17.960;2023-06-22T05:37:35;8.05;;;5.10;;
17725;SDS011;8983;53.156;17.960;2023-06-22T05:40:04;6.88;;;4.35;;
17725;SDS011;8983;53.156;17.960;2023-06-22T05:42:34;7.22;;;4.10;;
17725;SDS011;8983;53.156;17.960;2023-06-22T05:45:03;4.40;;;3.87;;
17725;SDS011;8983;53.156;17.960;2023-06-22T05:47:32;5.93;;;4.30;;
17725;SDS011;8983;53.156;17.960;2023-06-22T05:50:00;6.20;;;4.37;;
17725;SDS011;8983;53.156;17.960;2023-06-22T05:52:32;4.43;;;3.80;;
17725;SDS011;8983;53.156;17.960;2023-06-22T05:55:01;6.40;;;3.80;;
17725;SDS011;8983;53.156;17.960;2023-06-22T05:57:29;7.90;;;4.35;;
17725;SDS011;8983;53.156;17.960;2023-06-22T05:59:59;8.68;;;4.47;;
17725;SDS011;8983;53.156;17.960;2023-06-22T06:02:27;5.65;;;3.40;;
17725;SDS011;8983;53.156;17.960;2023-06-22T06:04:55;4.67;;;3.50;;
17725;SDS011;8983;53.156;17.960;2023-06-22T06:07:23;6.30;;;4.05;;
17725;SDS011;8983;53.156;17.960;2023-06-22T06:09:52;5.18;;;3.22;;
17725;SDS011;8983;53.156;17.960;2023-06-22T06:12:20;4.37;;;3.77;;
17725;SDS011;8983;53.156;17.960;2023-06-22T06:14:48;6.57;;;3.80;;
17725;SDS011;8983;53.156;17.960;2023-06-22T06:17:19;4.70;;;3.47;;
17725;SDS011;8983;53.156;17.960;2023-06-22T06:19:47;7.87;;;3.27;;
17725;SDS011;8983;53.156;17.960;2023-06-22T06:22:15;3.77;;;3.30;;
17725;SDS011;8983;53.156;17.960;2023-06-22T06:24:45;5.88;;;3.40;;
17725;SDS011;8983;53.156;17.960;2023-06-22T06:27:13;6.93;;;3.47;;
17725;SDS011;8983;53.156;17.960;2023-06-22T06:29:44;8.75;;;3.15;;
17725;SDS011;8983;53.156;17.960;2023-06-22T06:32:14;4.20;;;2.97;;
17725;SDS011;8983;53.156;17.960;2023-06-22T06:34:44;4.13;;;2.83;;
17725;SDS011;8983;53.156;17.960;2023-06-22T06:37:12;7.03;;;3.38;;
17725;SDS011;8983;53.156;17.960;2023-06-22T06:39:41;6.43;;;3.13;;
17725;SDS011;8983;53.156;17.960;2023-06-22T06:42:10;4.07;;;2.80;;
17725;SDS011;8983;53.156;17.960;2023-06-22T06:44:38;3.90;;;3.08;;
17725;SDS011;8983;53.156;17.960;2023-06-22T06:47:06;5.73;;;2.80;;
17725;SDS011;8983;53.156;17.960;2023-06-22T06:49:34;3.38;;;2.45;;
17725;SDS011;8983;53.156;17.960;2023-06-22T06:52:04;4.30;;;2.75;;
17725;SDS011;8983;53.156;17.960;2023-06-22T06:54:33;4.25;;;2.60;;
17725;SDS011;8983;53.156;17.960;2023-06-22T06:57:02;3.95;;;2.70;;
17725;SDS011;8983;53.156;17.960;2023-06-22T06:59:31;4.38;;;2.90;;
17725;SDS011;8983;53.156;17.960;2023-06-22T07:01:59;4.63;;;2.67;;
17725;SDS011;8983;53.156;17.960;2023-06-22T07:04:27;4.68;;;2.85;;
17725;SDS011;8983;53.156;17.960;2023-06-22T07:06:55;3.13;;;2.80;;
17725;SDS011;8983;53.156;17.960;2023-06-22T07:09:25;4.30;;;2.47;;
17725;SDS011;8983;53.156;17.960;2023-06-22T07:11:53;3.85;;;3.08;;
17725;SDS011;8983;53.156;17.960;2023-06-22T07:14:21;2.80;;;2.45;;
17725;SDS011;8983;53.156;17.960;2023-06-22T07:16:49;4.97;;;2.63;;
17725;SDS011;8983;53.156;17.960;2023-06-22T07:19:23;3.10;;;2.78;;
17725;SDS011;8983;53.156;17.960;2023-06-22T07:21:52;5.70;;;2.80;;
17725;SDS011;8983;53.156;17.960;2023-06-22T07:24:21;2.92;;;2.60;;
17725;SDS011;8983;53.156;17.960;2023-06-22T07:26:51;6.00;;;3.00;;
17725;SDS011;8983;53.156;17.960;2023-06-22T07:29:19;4.72;;;2.90;;
17725;SDS011;8983;53.156;17.960;2023-06-22T07:31:49;8.35;;;3.30;;
17725;SDS011;8983;53.156;17.960;2023-06-22T07:34:18;5.90;;;2.80;;
17725;SDS011;8983;53.156;17.960;2023-06-22T07:36:46;5.25;;;2.90;;
17725;SDS011;8983;53.156;17.960;2023-06-22T07:39:14;4.15;;;2.65;;
17725;SDS011;8983;53.156;17.960;2023-06-22T07:41:43;4.55;;;2.70;;
17725;SDS011;8983;53.156;17.960;2023-06-22T07:44:12;3.38;;;2.63;;
17725;SDS011;8983;53.156;17.960;2023-06-22T07:46:40;3.85;;;3.10;;
17725;SDS011;8983;53.156;17.960;2023-06-22T07:49:08;3.65;;;2.85;;
17725;SDS011;8983;53.156;17.960;2023-06-22T07:51:36;4.15;;;2.85;;
17725;SDS011;8983;53.156;17.960;2023-06-22T07:54:04;3.78;;;3.00;;
17725;SDS011;8983;53.156;17.960;2023-06-22T07:56:33;3.60;;;2.65;;
17725;SDS011;8983;53.156;17.960;2023-06-22T07:59:01;4.13;;;2.65;;
17725;SDS011;8983;53.156;17.960;2023-06-22T08:01:31;5.43;;;2.80;;
17725;SDS011;8983;53.156;17.960;2023-06-22T08:03:59;3.40;;;2.88;;
17725;SDS011;8983;53.156;17.960;2023-06-22T08:06:29;3.38;;;2.50;;
17725;SDS011;8983;53.156;17.960;2023-06-22T08:08:57;4.40;;;2.70;;
17725;SDS011;8983;53.156;17.960;2023-06-22T08:11:25;5.55;;;2.97;;
17725;SDS011;8983;53.156;17.960;2023-06-22T08:13:54;4.72;;;2.97;;
17725;SDS011;8983;53.156;17.960;2023-06-22T08:16:24;3.35;;;2.78;;
17725;SDS011;8983;53.156;17.960;2023-06-22T08:18:54;3.20;;;2.50;;
17725;SDS011;8983;53.156;17.960;2023-06-22T08:21:22;4.25;;;2.50;;
17725;SDS011;8983;53.156;17.960;2023-06-22T08:23:51;2.42;;;2.22;;
17725;SDS011;8983;53.156;17.960;2023-06-22T08:26:19;2.88;;;2.53;;
17725;SDS011;8983;53.156;17.960;2023-06-22T08:28:48;3.97;;;2.90;;
17725;SDS011;8983;53.156;17.960;2023-06-22T08:31:16;3.75;;;2.50;;
17725;SDS011;8983;53.156;17.960;2023-06-22T08:33:44;4.47;;;2.45;;
17725;SDS011;8983;53.156;17.960;2023-06-22T08:36:16;3.15;;;2.40;;
17725;SDS011;8983;53.156;17.960;2023-06-22T08:38:45;2.97;;;2.63;;
17725;SDS011;8983;53.156;17.960;2023-06-22T08:41:17;4.05;;;2.60;;
17725;SDS011;8983;53.156;17.960;2023-06-22T08:43:46;3.25;;;2.35;;
17725;SDS011;8983;53.156;17.960;2023-06-22T08:46:14;2.90;;;2.60;;
17725;SDS011;8983;53.156;17.960;2023-06-22T08:48:46;4.47;;;2.70;;
17725;SDS011;8983;53.156;17.960;2023-06-22T08:51:14;5.28;;;2.95;;
17725;SDS011;8983;53.156;17.960;2023-06-22T08:53:44;3.92;;;2.70;;
17725;SDS011;8983;53.156;17.960;2023-06-22T08:56:12;4.95;;;2.70;;
17725;SDS011;8983;53.156;17.960;2023-06-22T08:58:40;3.10;;;2.55;;
17725;SDS011;8983;53.156;17.960;2023-06-22T09:01:08;3.40;;;2.40;;
17725;SDS011;8983;53.156;17.960;2023-06-22T09:03:36;6.30;;;2.92;;
17725;SDS011;8983;53.156;17.960;2023-06-22T09:06:04;2.50;;;2.30;;
17725;SDS011;8983;53.156;17.960;2023-06-22T09:08:35;3.15;;;2.80;;
17725;SDS011;8983;53.156;17.960;2023-06-22T09:11:05;2.55;;;2.35;;
17725;SDS011;8983;53.156;17.960;2023-06-22T09:13:33;3.00;;;2.70;;
17725;SDS011;8983;53.156;17.960;2023-06-22T09:16:01;3.72;;;2.80;;
17725;SDS011;8983;53.156;17.960;2023-06-22T09:18:29;3.63;;;2.47;;
17725;SDS011;8983;53.156;17.960;2023-06-22T09:20:58;4.55;;;2.55;;
17725;SDS011;8983;53.156;17.960;2023-06-22T09:23:26;4.65;;;2.33;;
17725;SDS011;8983;53.156;17.960;2023-06-22T09:25:54;3.47;;;2.30;;
17725;SDS011;8983;53.156;17.960;2023-06-22T09:28:23;2.22;;;2.03;;
17725;SDS011;8983;53.156;17.960;2023-06-22T09:30:52;3.00;;;2.20;;
17725;SDS011;8983;53.156;17.960;2023-06-22T09:33:24;3.63;;;2.30;;
17725;SDS011;8983;53.156;17.960;2023-06-22T09:35:52;4.93;;;2.45;;
17725;SDS011;8983;53.156;17.960;2023-06-22T09:38:21;6.60;;;2.15;;
17725;SDS011;8983;53.156;17.960;2023-06-22T09:40:49;5.85;;;2.20;;
17725;SDS011;8983;53.156;17.960;2023-06-22T09:43:17;3.50;;;2.20;;
17725;SDS011;8983;53.156;17.960;2023-06-22T09:45:46;2.33;;;2.03;;
17725;SDS011;8983;53.156;17.960;2023-06-22T09:48:14;3.83;;;2.20;;
17725;SDS011;8983;53.156;17.960;2023-06-22T09:50:43;2.40;;;2.15;;
17725;SDS011;8983;53.156;17.960;2023-06-22T09:53:11;3.28;;;2.47;;
17725;SDS011;8983;53.156;17.960;2023-06-22T09:55:39;3.00;;;2.13;;
17725;SDS011;8983;53.156;17.960;2023-06-22T09:58:07;3.00;;;2.10;;
17725;SDS011;8983;53.156;17.960;2023-06-22T10:00:36;3.78;;;2.10;;
17725;SDS011;8983;53.156;17.960;2023-06-22T10:03:05;2.35;;;2.15;;
17725;SDS011;8983;53.156;17.960;2023-06-22T10:05:34;3.15;;;2.20;;
17725;SDS011;8983;53.156;17.960;2023-06-22T10:08:02;2.90;;;1.92;;
17725;SDS011;8983;53.156;17.960;2023-06-22T10:10:30;2.80;;;2.20;;
17725;SDS011;8983;53.156;17.960;2023-06-22T10:13:06;2.80;;;2.20;;
17725;SDS011;8983;53.156;17.960;2023-06-22T10:15:36;2.55;;;2.20;;
17725;SDS011;8983;53.156;17.960;2023-06-22T10:18:06;3.25;;;2.28;;
17725;SDS011;8983;53.156;17.960;2023-06-22T10:20:34;5.07;;;2.38;;
17725;SDS011;8983;53.156;17.960;2023-06-22T10:23:02;3.03;;;2.53;;
17725;SDS011;8983;53.156;17.960;2023-06-22T10:25:30;5.65;;;2.33;;
17725;SDS011;8983;53.156;17.960;2023-06-22T10:27:58;3.35;;;2.50;;
17725;SDS011;8983;53.156;17.960;2023-06-22T10:30:27;3.17;;;2.50;;
17725;SDS011;8983;53.156;17.960;2023-06-22T10:32:55;2.75;;;2.10;;
17725;SDS011;8983;53.156;17.960;2023-06-22T10:35:25;3.35;;;2.47;;
17725;SDS011;8983;53.156;17.960;2023-06-22T10:37:54;2.90;;;2.42;;
17725;SDS011;8983;53.156;17.960;2023-06-22T10:40:23;2.60;;;2.40;;
17725;SDS011;8983;53.156;17.960;2023-06-22T10:42:51;2.53;;;2.05;;
17725;SDS011;8983;53.156;17.960;2023-06-22T10:45:19;2.50;;;2.30;;
17725;SDS011;8983;53.156;17.960;2023-06-22T10:47:47;3.00;;;2.25;;
17725;SDS011;8983;53.156;17.960;2023-06-22T10:50:15;4.13;;;1.95;;
17725;SDS011;8983;53.156;17.960;2023-06-22T10:52:45;2.50;;;2.30;;
17725;SDS011;8983;53.156;17.960;2023-06-22T10:55:13;6.18;;;2.42;;
17725;SDS011;8983;53.156;17.960;2023-06-22T10:57:41;2.30;;;2.00;;
17725;SDS011;8983;53.156;17.960;2023-06-22T11:00:11;2.75;;;1.80;;
17725;SDS011;8983;53.156;17.960;2023-06-22T11:02:41;3.72;;;2.20;;
17725;SDS011;8983;53.156;17.960;2023-06-22T11:05:10;2.30;;;2.10;;
17725;SDS011;8983;53.156;17.960;2023-06-22T11:07:41;2.25;;;2.05;;
17725;SDS011;8983;53.156;17.960;2023-06-22T11:10:11;2.28;;;1.85;;
17725;SDS011;8983;53.156;17.960;2023-06-22T11:12:40;2.22;;;1.98;;
17725;SDS011;8983;53.156;17.960;2023-06-22T11:15:09;4.07;;;2.20;;
17725;SDS011;8983;53.156;17.960;2023-06-22T11:17:37;2.05;;;1.90;;
17725;SDS011;8983;53.156;17.960;2023-06-22T11:20:06;2.65;;;1.95;;
17725;SDS011;8983;53.156;17.960;2023-06-22T11:22:38;2.20;;;1.88;;
17725;SDS011;8983;53.156;17.960;2023-06-22T11:25:07;3.22;;;2.03;;
17725;SDS011;8983;53.156;17.960;2023-06-22T11:27:39;2.72;;;1.80;;
17725;SDS011;8983;53.156;17.960;2023-06-22T11:30:07;2.90;;;2.13;;
17725;SDS011;8983;53.156;17.960;2023-06-22T11:32:36;4.85;;;1.95;;
17725;SDS011;8983;53.156;17.960;2023-06-22T11:35:04;2.55;;;1.98;;
17725;SDS011;8983;53.156;17.960;2023-06-22T11:37:33;2.42;;;1.98;;
17725;SDS011;8983;53.156;17.960;2023-06-22T11:40:01;1.90;;;1.70;;
17725;SDS011;8983;53.156;17.960;2023-06-22T11:42:33;1.80;;;1.67;;
17725;SDS011;8983;53.156;17.960;2023-06-22T11:45:04;3.15;;;1.80;;
17725;SDS011;8983;53.156;17.960;2023-06-22T11:47:33;3.85;;;2.10;;
17725;SDS011;8983;53.156;17.960;2023-06-22T11:50:01;3.03;;;1.67;;
17725;SDS011;8983;53.156;17.960;2023-06-22T11:52:30;2.03;;;1.80;;
17725;SDS011;8983;53.156;17.960;2023-06-22T11:54:58;2.95;;;2.08;;
17725;SDS011;8983;53.156;17.960;2023-06-22T11:57:30;2.50;;;1.80;;
17725;SDS011;8983;53.156;17.960;2023-06-22T12:00:00;2.65;;;2.17;;
17725;SDS011;8983;53.156;17.960;2023-06-22T12:02:33;1.75;;;1.63;;
17725;SDS011;8983;53.156;17.960;2023-06-22T12:05:03;2.17;;;1.98;;
17725;SDS011;8983;53.156;17.960;2023-06-22T12:07:34;2.30;;;1.80;;
17725;SDS011;8983;53.156;17.960;2023-06-22T12:10:02;3.13;;;2.00;;
17725;SDS011;8983;53.156;17.960;2023-06-22T12:12:31;2.15;;;1.95;;
17725;SDS011;8983;53.156;17.960;2023-06-22T12:14:59;4.65;;;1.98;;
17725;SDS011;8983;53.156;17.960;2023-06-22T12:17:29;2.60;;;1.75;;
17725;SDS011;8983;53.156;17.960;2023-06-22T12:19:59;2.10;;;1.85;;
17725;SDS011;8983;53.156;17.960;2023-06-22T12:22:28;2.78;;;1.75;;
17725;SDS011;8983;53.156;17.960;2023-06-22T12:24:56;2.45;;;1.90;;
17725;SDS011;8983;53.156;17.960;2023-06-22T12:27:24;1.80;;;1.67;;
17725;SDS011;8983;53.156;17.960;2023-06-22T12:29:52;2.67;;;2.28;;
17725;SDS011;8983;53.156;17.960;2023-06-22T12:32:20;2.20;;;2.00;;
17725;SDS011;8983;53.156;17.960;2023-06-22T12:34:49;2.30;;;1.92;;
17725;SDS011;8983;53.156;17.960;2023-06-22T12:37:18;2.95;;;1.92;;
17725;SDS011;8983;53.156;17.960;2023-06-22T12:39:46;2.35;;;1.90;;
17725;SDS011;8983;53.156;17.960;2023-06-22T12:42:14;2.10;;;1.80;;
17725;SDS011;8983;53.156;17.960;2023-06-22T12:44:43;3.63;;;2.10;;
17725;SDS011;8983;53.156;17.960;2023-06-22T12:47:11;1.98;;;1.75;;
17725;SDS011;8983;53.156;17.960;2023-06-22T12:49:40;2.67;;;2.30;;
17725;SDS011;8983;53.156;17.960;2023-06-22T12:52:08;2.50;;;2.20;;
17725;SDS011;8983;53.156;17.960;2023-06-22T12:54:39;2.25;;;2.05;;
17725;SDS011;8983;53.156;17.960;2023-06-22T12:57:20;2.78;;;1.95;;
17725;SDS011;8983;53.156;17.960;2023-06-22T12:59:48;2.90;;;1.90;;
17725;SDS011;8983;53.156;17.960;2023-06-22T13:02:17;2.22;;;1.98;;
17725;SDS011;8983;53.156;17.960;2023-06-22T13:04:45;3.42;;;2.42;;
17725;SDS011;8983;53.156;17.960;2023-06-22T13:07:14;2.50;;;1.83;;
17725;SDS011;8983;53.156;17.960;2023-06-22T13:09:49;2.72;;;2.08;;
17725;SDS011;8983;53.156;17.960;2023-06-22T13:12:19;2.70;;;1.98;;
17725;SDS011;8983;53.156;17.960;2023-06-22T13:14:47;2.33;;;2.13;;
17725;SDS011;8983;53.156;17.960;2023-06-22T13:17:16;2.25;;;1.88;;
17725;SDS011;8983;53.156;17.960;2023-06-22T13:19:44;3.30;;;2.22;;
17725;SDS011;8983;53.156;17.960;2023-06-22T13:22:25;1.95;;;1.77;;
17725;SDS011;8983;53.156;17.960;2023-06-22T13:24:57;2.95;;;1.88;;
17725;SDS011;8983;53.156;17.960;2023-06-22T13:27:26;2.03;;;1.83;;
17725;SDS011;8983;53.156;17.960;2023-06-22T13:29:54;2.38;;;2.08;;
17725;SDS011;8983;53.156;17.960;2023-06-22T13:32:22;2.25;;;1.98;;
17725;SDS011;8983;53.156;17.960;2023-06-22T13:34:51;2.38;;;1.90;;
17725;SDS011;8983;53.156;17.960;2023-06-22T13:37:21;2.67;;;1.98;;
17725;SDS011;8983;53.156;17.960;2023-06-22T13:39:49;2.85;;;2.10;;
17725;SDS011;8983;53.156;17.960;2023-06-22T13:42:18;2.95;;;2.13;;
17725;SDS011;8983;53.156;17.960;2023-06-22T13:44:46;2.55;;;1.90;;
17725;SDS011;8983;53.156;17.960;2023-06-22T13:47:14;2.72;;;2.20;;
17725;SDS011;8983;53.156;17.960;2023-06-22T13:49:42;2.97;;;2.17;;
17725;SDS011;8983;53.156;17.960;2023-06-22T13:52:10;2.72;;;2.00;;
17725;SDS011;8983;53.156;17.960;2023-06-22T13:54:39;2.35;;;2.03;;
17725;SDS011;8983;53.156;17.960;2023-06-22T13:57:07;2.45;;;1.90;;
17725;SDS011;8983;53.156;17.960;2023-06-22T13:59:36;4.30;;;2.22;;
17725;SDS011;8983;53.156;17.960;2023-06-22T14:02:05;2.70;;;2.40;;
17725;SDS011;8983;53.156;17.960;2023-06-22T14:04:33;2.53;;;2.33;;
17725;SDS011;8983;53.156;17.960;2023-06-22T14:07:02;2.40;;;2.03;;
17725;SDS011;8983;53.156;17.960;2023-06-22T14:09:30;2.30;;;2.10;;
17725;SDS011;8983;53.156;17.960;2023-06-22T14:12:01;2.28;;;2.08;;
17725;SDS011;8983;53.156;17.960;2023-06-22T14:14:31;2.65;;;2.20;;
17725;SDS011;8983;53.156;17.960;2023-06-22T14:17:01;2.63;;;2.28;;
17725;SDS011;8983;53.156;17.960;2023-06-22T14:19:29;1.88;;;1.73;;
17725;SDS011;8983;53.156;17.960;2023-06-22T14:21:58;2.28;;;2.00;;
17725;SDS011;8983;53.156;17.960;2023-06-22T14:24:26;3.10;;;2.25;;
17725;SDS011;8983;53.156;17.960;2023-06-22T14:26:56;2.50;;;2.05;;
17725;SDS011;8983;53.156;17.960;2023-06-22T14:29:24;2.35;;;2.00;;
17725;SDS011;8983;53.156;17.960;2023-06-22T14:31:53;2.30;;;2.00;;
17725;SDS011;8983;53.156;17.960;2023-06-22T14:34:22;2.72;;;2.15;;
17725;SDS011;8983;53.156;17.960;2023-06-22T14:36:51;3.20;;;2.00;;
17725;SDS011;8983;53.156;17.960;2023-06-22T14:39:19;2.53;;;2.25;;
17725;SDS011;8983;53.156;17.960;2023-06-22T14:41:47;2.58;;;2.30;;
17725;SDS011;8983;53.156;17.960;2023-06-22T14:44:15;2.97;;;1.90;;
17725;SDS011;8983;53.156;17.960;2023-06-22T14:46:44;2.90;;;2.00;;
17725;SDS011;8983;53.156;17.960;2023-06-22T14:49:12;2.20;;;2.00;;
17725;SDS011;8983;53.156;17.960;2023-06-22T14:51:41;2.60;;;2.20;;
17725;SDS011;8983;53.156;17.960;2023-06-22T14:54:09;2.20;;;1.85;;
17725;SDS011;8983;53.156;17.960;2023-06-22T14:56:37;3.03;;;1.90;;